Terminal Aerodrome Forecast
Issued by NWS

Home | Current Version | Previous Version | Text Only | Print | Product List | Glossary On
Versions: 1 2 3 4 5 6 7 8 9 10 11 12 13
000
FTUS43 KTOP 290500
TAFMHK
TAF
KMHK 290520Z 2906/3006 04002KT P6SM SKC
     FM290900 05004KT P6SM VCSH BKN070
     FM291800 06004KT P6SM BKN070=

USA.gov is the U.S. government's official web portal to all federal, state and local government web resources and services.